Time;durP1;ratioP1;P1;durP2;ratioP2;P2;SDS_P1;SDS_P2;PMS_P1;PMS_P2;Temp;Humidity;BMP_temperature;BMP_pressure;BME280_temperature;BME280_humidity;BME280_pressure;Samples;Min_cycle;Max_cycle;Signal;HPM_P1;HPM_P2
2022/10/23 00:01:22;;;;;;;10.90;5.43;;;;;;;12.34;100.00;101196.78;6186789;23;20005;-86
2022/10/23 00:03:50;;;;;;;13.83;5.20;;;;;;;12.35;100.00;101193.00;6184647;23;20479;-86
2022/10/23 00:06:16;;;;;;;12.55;5.40;;;;;;;12.34;100.00;101194.06;6185065;23;20005;-86
2022/10/23 00:08:42;;;;;;;12.57;5.30;;;;;;;12.33;100.00;101186.94;6186130;23;20028;-86
2022/10/23 00:11:13;;;;;;;13.40;5.20;;;;;;;12.33;100.00;101184.22;6186786;23;20012;-86
2022/10/23 00:13:39;;;;;;;13.43;5.13;;;;;;;12.34;100.00;101179.59;6189993;23;20069;-86
2022/10/23 00:16:05;;;;;;;16.75;4.72;;;;;;;12.33;100.00;101186.94;6189571;23;20039;-86
2022/10/23 00:18:33;;;;;;;11.63;4.90;;;;;;;12.34;100.00;101179.59;6216510;23;20009;-86
2022/10/23 00:20:59;;;;;;;12.00;4.88;;;;;;;12.32;100.00;101181.72;6216494;23;20055;-86
2022/10/23 00:23:24;;;;;;;12.73;5.23;;;;;;;12.33;100.00;101186.09;6217200;23;20005;-86
2022/10/23 00:25:50;;;;;;;13.20;5.13;;;;;;;12.31;100.00;101186.31;6216229;23;20079;-86
2022/10/23 00:28:15;;;;;;;13.10;4.78;;;;;;;12.29;100.00;101183.81;6190131;23;20012;-86
2022/10/23 00:30:41;;;;;;;9.77;4.63;;;;;;;12.29;100.00;101191.16;6189951;23;20111;-86
2022/10/23 00:33:06;;;;;;;13.57;5.10;;;;;;;12.31;100.00;101180.03;6164635;23;20429;-86
2022/10/23 00:35:37;;;;;;;10.32;4.70;;;;;;;12.28;100.00;101179.44;6189716;23;20047;-86
2022/10/23 00:38:02;;;;;;;12.40;5.23;;;;;;;12.30;100.00;101179.22;6189875;23;20004;-86
2022/10/23 00:40:28;;;;;;;9.93;4.80;;;;;;;12.31;100.00;101183.59;6190132;23;20007;-86
2022/10/23 00:42:56;;;;;;;16.60;4.77;;;;;;;12.29;100.00;101175.66;6189654;23;20587;-86
2022/10/23 00:45:25;;;;;;;12.63;5.10;;;;;;;12.30;100.00;101176.50;6189696;23;20382;-86
2022/10/23 00:47:51;;;;;;;10.80;4.83;;;;;;;12.32;100.00;101179.00;6189695;23;20502;-86
2022/10/23 00:50:18;;;;;;;11.35;5.18;;;;;;;12.29;100.00;101177.53;6215958;23;20071;-86
2022/10/23 00:52:49;;;;;;;11.25;4.80;;;;;;;12.31;100.00;101178.16;6216494;23;20000;-86
2022/10/23 00:55:16;;;;;;;12.27;5.57;;;;;;;12.29;100.00;101182.97;6189513;23;20012;-86
2022/10/23 00:57:47;;;;;;;13.23;5.03;;;;;;;12.28;100.00;101175.88;6190027;23;20008;-86
2022/10/23 01:00:28;;;;;;;14.07;4.93;;;;;;;12.29;100.00;101172.09;6190642;23;20015;-86
2022/10/23 01:02:56;;;;;;;9.95;5.15;;;;;;;12.27;100.00;101171.50;6189400;23;20032;-86
2022/10/23 01:05:29;;;;;;;12.43;5.10;;;;;;;12.27;100.00;101172.31;6189323;23;20062;-87
2022/10/23 01:08:16;;;;;;;11.50;5.30;;;;;;;12.26;100.00;101159.75;6189945;23;20058;-86
2022/10/23 01:10:57;;;;;;;11.43;5.00;;;;;;;12.26;100.00;101175.25;6189105;23;20036;-86
2022/10/23 01:13:39;;;;;;;10.43;4.50;;;;;;;12.23;100.00;101176.53;6189775;23;20015;-86
2022/10/23 01:16:12;;;;;;;12.38;4.50;;;;;;;12.21;100.00;101170.47;6189999;23;20005;-86
2022/10/23 01:18:48;;;;;;;10.50;5.05;;;;;;;12.17;100.00;101160.25;6190675;23;20021;-86
2022/10/23 01:21:32;;;;;;;15.30;5.20;;;;;;;12.14;100.00;101171.56;6189862;23;20424;-86
2022/10/23 01:24:11;;;;;;;16.35;5.15;;;;;;;12.09;100.00;101164.03;6190142;23;20012;-86
2022/10/23 01:26:36;;;;;;;11.63;4.73;;;;;;;12.07;100.00;101163.44;6216885;23;20009;-86
2022/10/23 01:29:26;;;;;;;10.95;4.82;;;;;;;12.03;100.00;101160.34;6216155;23;20054;-85
2022/10/23 01:32:03;;;;;;;9.00;4.53;;;;;;;12.02;100.00;101155.13;6189839;23;20009;-86
2022/10/23 01:34:50;;;;;;;12.98;4.57;;;;;;;12.02;100.00;101149.69;6192379;23;20012;-86
2022/10/23 01:37:22;;;;;;;14.10;4.75;;;;;;;12.03;100.00;101149.47;6192404;23;20407;-86
2022/10/23 01:40:00;;;;;;;10.40;4.38;;;;;;;12.04;100.00;101150.28;6191927;23;20005;-86
2022/10/23 01:42:32;;;;;;;18.17;5.65;;;;;;;12.02;100.00;101136.91;6192446;23;20001;-86
2022/10/23 01:45:07;;;;;;;12.00;4.40;;;;;;;12.05;100.00;101128.31;6192484;23;20281;-86
2022/10/23 01:47:34;;;;;;;12.55;4.72;;;;;;;12.02;100.00;101128.75;6191716;23;20013;-86
2022/10/23 01:50:02;;;;;;;13.48;5.13;;;;;;;12.01;100.00;101132.50;6191476;23;20009;-86
2022/10/23 01:52:28;;;;;;;11.80;4.65;;;;;;;12.00;100.00;101125.41;6191528;23;20035;-86
2022/10/23 01:54:56;;;;;;;11.30;4.90;;;;;;;12.01;100.00;101115.38;6191335;23;20431;-86
2022/10/23 01:57:24;;;;;;;14.20;5.18;;;;;;;12.03;100.00;101118.69;6191301;23;20009;-86
2022/10/23 01:59:54;;;;;;;10.30;4.40;;;;;;;12.02;100.00;101127.91;6217547;23;20048;-86
2022/10/23 02:02:23;;;;;;;18.77;5.35;;;;;;;12.01;100.00;101121.63;6191426;23;20091;-86
2022/10/23 02:05:02;;;;;;;12.33;4.60;;;;;;;12.00;100.00;101127.28;6191486;23;20043;-86
2022/10/23 02:07:31;;;;;;;10.30;4.80;;;;;;;12.01;100.00;101126.25;6192252;23;20012;-86
2022/10/23 02:10:01;;;;;;;13.65;5.40;;;;;;;12.02;100.00;101130.63;6187669;23;20028;-86
2022/10/23 02:12:43;;;;;;;12.63;4.95;;;;;;;12.02;100.00;101122.47;6190815;23;20019;-86
2022/10/23 02:15:34;;;;;;;14.48;5.03;;;;;;;12.01;100.00;101121.63;6191868;23;20015;-85
2022/10/23 02:18:12;;;;;;;14.60;4.87;;;;;;;12.02;100.00;101114.31;6191551;23;20309;-86
2022/10/23 02:20:42;;;;;;;10.73;4.70;;;;;;;11.98;100.00;101108.47;6191422;23;20066;-86
2022/10/23 02:23:32;;;;;;;8.90;4.60;;;;;;;12.02;100.00;101117.03;6190881;23;20004;-86
2022/10/23 02:26:08;;;;;;;16.60;5.22;;;;;;;12.02;100.00;101117.88;6191493;23;20004;-86
2022/10/23 02:28:41;;;;;;;12.60;4.78;;;;;;;12.03;100.00;101107.81;6218052;23;20005;-86
2022/10/23 02:31:12;;;;;;;11.07;4.67;;;;;;;12.06;100.00;101104.66;6191370;23;20438;-86
2022/10/23 02:33:38;;;;;;;10.23;4.78;;;;;;;12.08;100.00;101099.84;6217290;23;20008;-86
2022/10/23 02:36:04;;;;;;;17.20;5.10;;;;;;;12.08;100.00;101100.66;6165596;23;20019;-87
2022/10/23 02:38:41;;;;;;;16.27;5.90;;;;;;;12.08;100.00;101102.56;6191072;23;20013;-86
2022/10/23 02:41:25;;;;;;;11.85;5.43;;;;;;;12.10;100.00;101087.66;6217276;23;20092;-86
2022/10/23 02:44:16;;;;;;;16.00;5.55;;;;;;;12.11;100.00;101073.03;6191066;23;20097;-86
2022/10/23 02:46:51;;;;;;;12.88;5.45;;;;;;;12.12;100.00;101071.16;6191326;23;20004;-86
2022/10/23 02:49:26;;;;;;;14.48;5.53;;;;;;;12.13;100.00;101055.66;6191529;23;20071;-86
2022/10/23 02:52:06;;;;;;;12.77;5.70;;;;;;;12.14;100.00;101049.19;6191133;23;20004;-86
2022/10/23 02:54:47;;;;;;;16.30;5.80;;;;;;;12.15;100.00;101050.81;6190726;23;20419;-86
2022/10/23 02:57:37;;;;;;;13.98;5.22;;;;;;;12.13;100.00;101034.72;6191383;23;20323;-86
2022/10/23 03:00:12;;;;;;;15.13;5.20;;;;;;;12.14;100.00;101032.88;6217342;23;20004;-86
2022/10/23 03:02:45;;;;;;;11.80;5.30;;;;;;;12.13;100.00;101033.91;6190969;23;20008;-86
2022/10/23 03:05:18;;;;;;;10.40;4.90;;;;;;;12.14;100.00;101030.13;6217020;23;20005;-86
2022/10/23 03:07:45;;;;;;;10.63;5.30;;;;;;;12.13;100.00;101026.56;6190919;23;20415;-87
2022/10/23 03:10:11;;;;;;;16.73;5.15;;;;;;;12.11;100.00;101015.09;6217385;23;20319;-86
2022/10/23 03:12:36;;;;;;;11.33;5.23;;;;;;;12.14;100.00;101021.97;6190559;23;20096;-86
2022/10/23 03:15:03;;;;;;;12.85;6.03;;;;;;;12.11;100.00;101015.91;6190581;23;20040;-86
2022/10/23 03:17:28;;;;;;;10.68;5.20;;;;;;;12.11;100.00;101006.94;6190723;23;20434;-86
2022/10/23 03:19:54;;;;;;;14.10;5.37;;;;;;;12.12;100.00;101008.59;6190683;23;20009;-86
2022/10/23 03:22:19;;;;;;;9.90;5.03;;;;;;;12.15;100.00;100996.44;6190436;23;20422;-86
2022/10/23 03:24:44;;;;;;;13.80;5.50;;;;;;;12.14;100.00;101003.75;6190159;23;20008;-86
2022/10/23 03:27:10;;;;;;;12.57;5.35;;;;;;;12.16;100.00;101015.25;6190157;23;20013;-86
2022/10/23 03:29:36;;;;;;;14.20;5.10;;;;;;;12.18;100.00;101005.00;6190668;23;20012;-87
2022/10/23 03:32:02;;;;;;;9.85;4.90;;;;;;;12.16;100.00;101004.38;6165987;23;20013;-86
2022/10/23 03:34:28;;;;;;;13.05;5.30;;;;;;;12.19;100.00;101009.34;6165595;23;20339;-86
2022/10/23 03:36:53;;;;;;;14.17;5.70;;;;;;;12.21;100.00;100999.09;6165496;23;20430;-85
2022/10/23 03:39:18;;;;;;;10.43;5.10;;;;;;;12.25;100.00;100997.63;6165530;23;20013;-85
2022/10/23 03:41:44;;;;;;;12.50;4.87;;;;;;;12.28;100.00;100990.88;6216616;23;20062;-86
2022/10/23 03:44:09;;;;;;;10.00;5.37;;;;;;;12.29;100.00;100990.63;6190838;23;20011;-86
2022/10/23 03:46:35;;;;;;;12.25;6.10;;;;;;;12.31;100.00;100987.69;6166458;23;20100;-85
2022/10/23 03:49:00;;;;;;;11.23;5.27;;;;;;;12.33;100.00;100987.47;6190446;23;20036;-85
2022/10/23 03:51:28;;;;;;;16.57;5.80;;;;;;;12.34;100.00;100980.97;6216880;23;20308;-86
2022/10/23 03:53:54;;;;;;;14.02;5.00;;;;;;;12.33;100.00;100984.75;6190188;23;20009;-86
2022/10/23 03:56:20;;;;;;;11.67;5.20;;;;;;;12.33;100.00;100974.72;6190332;23;20062;-86
2022/10/23 03:58:45;;;;;;;13.00;5.85;;;;;;;12.33;100.00;100974.72;6190384;23;20063;-86
2022/10/23 04:01:11;;;;;;;8.67;4.90;;;;;;;12.33;100.00;100971.16;6190271;23;20013;-86
2022/10/23 04:03:36;;;;;;;10.77;5.60;;;;;;;12.33;100.00;100966.56;6189701;23;20096;-86
2022/10/23 04:06:01;;;;;;;10.63;5.22;;;;;;;12.32;100.00;100953.19;6190020;23;20005;-87
2022/10/23 04:08:27;;;;;;;12.33;5.00;;;;;;;12.29;100.00;100952.56;6190782;23;20418;-86
2022/10/23 04:10:53;;;;;;;12.90;5.57;;;;;;;12.27;100.00;100946.53;6186691;23;20016;-86
2022/10/23 04:13:19;;;;;;;13.15;4.82;;;;;;;12.27;100.00;100943.78;6190288;23;20419;-86
2022/10/23 04:15:49;;;;;;;9.63;5.03;;;;;;;12.26;100.00;100947.56;6165283;23;20052;-86
2022/10/23 04:18:15;;;;;;;10.13;5.20;;;;;;;12.26;100.00;100944.03;6189989;23;20071;-85
2022/10/23 04:20:43;;;;;;;11.13;5.43;;;;;;;12.23;100.00;100942.56;6190126;23;20008;-86
2022/10/23 04:23:08;;;;;;;12.13;5.77;;;;;;;12.23;100.00;100949.91;6189423;23;20286;-86
2022/10/23 04:25:34;;;;;;;13.52;5.53;;;;;;;12.21;100.00;100957.44;6189626;23;20020;-86
2022/10/23 04:27:59;;;;;;;12.90;5.40;;;;;;;12.20;100.00;100956.63;6164713;23;20012;-86
2022/10/23 04:30:24;;;;;;;12.13;5.23;;;;;;;12.21;100.00;100958.31;6216121;23;20009;-86
2022/10/23 04:32:51;;;;;;;10.13;4.50;;;;;;;12.19;100.00;100951.41;6189843;23;20009;-86
2022/10/23 04:35:18;;;;;;;13.20;5.28;;;;;;;12.18;100.00;100952.47;6216020;23;20107;-86
2022/10/23 04:37:44;;;;;;;11.93;5.47;;;;;;;12.18;100.00;100960.63;6215986;23;20004;-86
2022/10/23 04:40:10;;;;;;;9.43;4.60;;;;;;;12.15;100.00;100951.03;6190080;23;20005;-86
2022/10/23 04:42:35;;;;;;;10.77;5.47;;;;;;;12.14;100.00;100941.22;6190047;23;20015;-86
2022/10/23 04:45:00;;;;;;;12.10;5.03;;;;;;;12.11;100.00;100934.31;6190818;23;20040;-86
2022/10/23 04:47:26;;;;;;;12.77;5.40;;;;;;;12.10;100.00;100943.53;6190030;23;20008;-86
2022/10/23 04:49:51;;;;;;;12.70;5.50;;;;;;;12.10;100.00;100948.13;6190017;23;20004;-86
2022/10/23 04:52:19;;;;;;;12.30;4.93;;;;;;;12.10;100.00;100945.41;6189716;23;20008;-86
2022/10/23 04:54:45;;;;;;;13.73;5.18;;;;;;;12.07;100.00;100935.81;6189991;23;20036;-86
2022/10/23 04:57:11;;;;;;;10.25;5.50;;;;;;;12.10;100.00;100937.25;6189765;23;20442;-86
2022/10/23 04:59:36;;;;;;;13.17;5.40;;;;;;;12.07;100.00;100932.28;6140302;23;20096;-86
2022/10/23 05:02:02;;;;;;;10.60;5.20;;;;;;;12.09;100.00;100930.16;6189550;23;20008;-86
2022/10/23 05:04:27;;;;;;;14.70;5.33;;;;;;;12.08;100.00;100926.59;6190638;23;20453;-86
2022/10/23 05:06:52;;;;;;;7.93;4.53;;;;;;;12.09;100.00;100927.44;6190084;23;20419;-86
2022/10/23 05:09:21;;;;;;;9.60;5.10;;;;;;;12.13;100.00;100933.28;6189556;23;20035;-86
2022/10/23 05:11:47;;;;;;;12.93;5.05;;;;;;;12.14;100.00;100933.03;6216930;23;20082;-86
2022/10/23 05:14:13;;;;;;;14.67;5.40;;;;;;;12.14;100.00;100924.06;6190470;23;20315;-86
2022/10/23 05:16:53;;;;;;;12.38;4.72;;;;;;;12.13;100.00;100916.94;6215772;23;20062;-86
2022/10/23 05:19:32;;;;;;;7.10;4.78;;;;;;;12.16;100.00;100917.31;6189945;23;20008;-87
2022/10/23 05:21:57;;;;;;;9.37;4.67;;;;;;;12.19;100.00;100919.59;6189846;23;20012;-86
2022/10/23 05:24:24;;;;;;;13.75;5.40;;;;;;;12.19;100.00;100921.50;6189554;23;20008;-87
2022/10/23 05:26:51;;;;;;;9.95;4.63;;;;;;;12.18;100.00;100917.94;6189745;23;20036;-86
2022/10/23 05:29:20;;;;;;;14.13;4.93;;;;;;;12.18;100.00;100915.22;6215784;23;20018;-86
2022/10/23 05:31:48;;;;;;;9.60;4.78;;;;;;;12.15;100.00;100915.69;6189122;23;20092;-86
2022/10/23 05:34:18;;;;;;;10.63;4.78;;;;;;;12.16;100.00;100905.63;6189865;23;20004;-86
2022/10/23 05:36:44;;;;;;;12.13;4.90;;;;;;;12.15;100.00;100904.81;6189706;23;20028;-86
2022/10/23 05:39:10;;;;;;;8.38;4.78;;;;;;;12.16;100.00;100911.06;6140073;23;20028;-87
2022/10/23 05:41:35;;;;;;;9.57;4.77;;;;;;;12.16;100.00;100895.56;6189532;23;20008;-86
2022/10/23 05:44:00;;;;;;;12.33;4.73;;;;;;;12.16;100.00;100906.44;6189289;23;20008;-86
2022/10/23 05:46:26;;;;;;;9.40;4.70;;;;;;;12.15;100.00;100895.78;6141161;23;20312;-87
2022/10/23 05:48:52;;;;;;;11.30;4.63;;;;;;;12.16;100.00;100897.47;6189084;23;20020;-88
2022/10/23 05:51:21;;;;;;;12.60;4.73;;;;;;;12.14;100.00;100897.69;6216049;23;20423;-88
2022/10/23 05:53:53;;;;;;;16.17;5.13;;;;;;;12.14;100.00;100894.16;6189338;23;20453;-88
2022/10/23 05:56:29;;;;;;;14.50;4.95;;;;;;;12.15;100.00;100891.19;6189774;23;20063;-88
2022/10/23 05:58:54;;;;;;;8.80;4.53;;;;;;;12.18;100.00;100888.03;6189721;23;20016;-87
2022/10/23 06:01:21;;;;;;;12.37;4.70;;;;;;;12.22;100.00;100893.84;6189982;23;20324;-85
2022/10/23 06:03:47;;;;;;;14.55;4.60;;;;;;;12.23;100.00;100887.34;6189298;23;20009;-85
2022/10/23 06:06:12;;;;;;;11.23;4.50;;;;;;;12.26;100.00;100885.00;6164491;23;20048;-86
2022/10/23 06:08:38;;;;;;;9.27;4.20;;;;;;;12.27;100.00;100883.13;6189166;23;20334;-86
2022/10/23 06:11:06;;;;;;;10.90;4.37;;;;;;;12.25;100.00;100882.50;6164265;23;20039;-85
2022/10/23 06:13:31;;;;;;;11.55;4.30;;;;;;;12.26;100.00;100881.47;6189270;23;20020;-86
2022/10/23 06:15:56;;;;;;;12.20;4.83;;;;;;;12.26;100.00;100879.56;6189389;23;20012;-85
2022/10/23 06:18:25;;;;;;;12.90;4.30;;;;;;;12.29;100.00;100876.38;6165634;23;20303;-85
2022/10/23 06:20:50;;;;;;;15.70;4.67;;;;;;;12.33;100.00;100881.38;6166339;23;20005;-85
2022/10/23 06:23:16;;;;;;;10.73;4.43;;;;;;;12.36;100.00;100870.06;6190944;23;20067;-85
2022/10/23 06:25:41;;;;;;;10.10;4.00;;;;;;;12.41;100.00;100867.47;6217372;23;20007;-88
2022/10/23 06:28:06;;;;;;;13.47;4.37;;;;;;;12.42;100.00;100869.16;6191153;23;20392;-85
2022/10/23 06:30:32;;;;;;;8.93;4.10;;;;;;;12.48;100.00;100870.13;6190678;23;20008;-85
2022/10/23 06:32:57;;;;;;;8.73;4.30;;;;;;;12.55;100.00;100866.25;6166250;23;20300;-85
2022/10/23 06:35:25;;;;;;;14.52;4.50;;;;;;;12.57;100.00;100852.44;6141587;23;20036;-88
2022/10/23 06:37:50;;;;;;;9.20;4.20;;;;;;;12.60;100.00;100855.50;6190703;23;20013;-87
2022/10/23 06:40:16;;;;;;;12.20;4.00;;;;;;;12.63;100.00;100851.50;6217229;23;20088;-86
2022/10/23 06:42:41;;;;;;;9.40;4.03;;;;;;;12.63;100.00;100844.16;6166708;23;20555;-86
2022/10/23 06:45:07;;;;;;;8.57;4.17;;;;;;;12.65;100.00;100838.50;6190916;23;20011;-86
2022/10/23 06:47:32;;;;;;;11.33;4.30;;;;;;;12.68;100.00;100834.47;6217486;23;20014;-86
2022/10/23 06:49:58;;;;;;;9.45;3.92;;;;;;;12.68;100.00;100829.88;6191218;23;20005;-85
2022/10/23 06:52:23;;;;;;;8.03;4.30;;;;;;;12.70;100.00;100835.91;6217098;23;20008;-86
2022/10/23 06:54:48;;;;;;;9.00;3.87;;;;;;;12.75;100.00;100835.22;6190530;23;20004;-85
2022/10/23 06:57:14;;;;;;;11.67;4.10;;;;;;;12.79;100.00;100833.72;6191051;23;20043;-85
2022/10/23 06:59:41;;;;;;;11.70;3.87;;;;;;;12.81;100.00;100829.72;6165755;23;20013;-86
2022/10/23 07:02:08;;;;;;;8.55;4.00;;;;;;;12.84;100.00;100831.13;6166062;23;20443;-86
2022/10/23 07:04:34;;;;;;;6.82;4.20;;;;;;;12.87;100.00;100830.66;6190723;23;20427;-86
2022/10/23 07:06:59;;;;;;;13.07;3.90;;;;;;;12.90;100.00;100840.25;6190930;23;20050;-86
2022/10/23 07:09:25;;;;;;;9.77;3.83;;;;;;;12.93;100.00;100839.78;6190816;23;20020;-86
2022/10/23 07:11:50;;;;;;;8.50;4.10;;;;;;;12.97;100.00;100836.38;6165813;23;20263;-86
2022/10/23 07:14:15;;;;;;;12.43;3.80;;;;;;;13.01;100.00;100825.00;6165835;23;20412;-85
2022/10/23 07:16:41;;;;;;;10.00;3.40;;;;;;;13.06;100.00;100830.59;6190593;23;20055;-85
2022/10/23 07:19:07;;;;;;;7.60;3.43;;;;;;;13.08;100.00;100829.31;6190400;23;20339;-86
2022/10/23 07:21:34;;;;;;;9.57;3.30;;;;;;;13.14;100.00;100828.38;6190346;23;20001;-86
2022/10/23 07:24:01;;;;;;;8.82;3.53;;;;;;;13.20;100.00;100817.59;6190333;23;20054;-86
2022/10/23 07:26:26;;;;;;;8.15;3.40;;;;;;;13.25;100.00;100820.47;6190733;23;20346;-86
2022/10/23 07:28:54;;;;;;;6.80;3.13;;;;;;;13.29;100.00;100813.50;6190271;23;20017;-86
2022/10/23 07:31:22;;;;;;;6.38;3.28;;;;;;;13.37;100.00;100812.34;6165490;23;20013;-86
2022/10/23 07:33:49;;;;;;;9.88;3.30;;;;;;;13.44;100.00;100815.78;6190320;23;20058;-86
2022/10/23 07:36:14;;;;;;;12.70;3.72;;;;;;;13.48;100.00;100809.63;6190421;23;20008;-86
2022/10/23 07:38:40;;;;;;;8.17;3.40;;;;;;;13.55;100.00;100806.78;6165734;23;20008;-85
2022/10/23 07:41:06;;;;;;;9.07;3.20;;;;;;;13.60;100.00;100804.19;6190303;23;20013;-85
2022/10/23 07:43:32;;;;;;;10.20;3.50;;;;;;;13.65;100.00;100796.13;6190269;23;20012;-86
2022/10/23 07:45:57;;;;;;;6.38;3.03;;;;;;;13.73;100.00;100811.31;6190249;23;20037;-85
2022/10/23 07:48:23;;;;;;;8.60;3.30;;;;;;;13.77;100.00;100800.75;6190246;23;20032;-86
2022/10/23 07:50:50;;;;;;;10.80;3.42;;;;;;;13.84;100.00;100799.56;6190236;23;20015;-86
2022/10/23 07:53:21;;;;;;;6.07;2.80;;;;;;;13.92;100.00;100792.06;6190301;23;20013;-86
2022/10/23 07:55:55;;;;;;;9.17;2.70;;;;;;;14.02;100.00;100797.75;6216718;23;20095;-86
2022/10/23 07:58:20;;;;;;;5.88;2.58;;;;;;;14.09;100.00;100798.47;6165989;23;20142;-86
2022/10/23 08:01:02;;;;;;;7.03;2.78;;;;;;;14.19;100.00;100806.88;6189973;23;20447;-86
2022/10/23 08:03:32;;;;;;;6.47;2.55;;;;;;;14.29;100.00;100798.06;6189993;23;20000;-86
2022/10/23 08:05:58;;;;;;;8.23;2.57;;;;;;;14.37;100.00;100794.13;6190291;23;20005;-87
2022/10/23 08:08:24;;;;;;;7.63;3.08;;;;;;;14.45;100.00;100799.19;6189821;23;20001;-86
2022/10/23 08:10:52;;;;;;;9.98;3.00;;;;;;;14.50;100.00;100793.03;6186439;23;20044;-86
2022/10/23 08:13:19;;;;;;;9.20;3.20;;;;;;;14.60;99.85;100790.50;6216571;23;20017;-86
2022/10/23 08:15:46;;;;;;;5.38;2.95;;;;;;;14.67;99.29;100791.19;6165166;23;20088;-86
2022/10/23 08:18:11;;;;;;;7.23;3.53;;;;;;;14.72;98.92;100794.03;6189839;23;20011;-86
2022/10/23 08:20:38;;;;;;;8.57;3.22;;;;;;;14.82;98.55;100787.94;6216404;23;20009;-86
2022/10/23 08:23:04;;;;;;;8.32;2.70;;;;;;;14.86;98.08;100791.00;6190375;23;20013;-86
2022/10/23 08:25:30;;;;;;;6.70;3.10;;;;;;;14.93;97.34;100785.38;6190137;23;20364;-86
2022/10/23 08:27:55;;;;;;;7.65;3.00;;;;;;;14.95;97.18;100788.69;6190176;23;20015;-86
2022/10/23 08:30:20;;;;;;;9.73;3.10;;;;;;;14.95;96.99;100783.22;6216445;23;20427;-86
2022/10/23 08:32:46;;;;;;;8.83;3.40;;;;;;;14.93;97.20;100780.75;6189800;23;20039;-86
2022/10/23 08:35:11;;;;;;;9.27;3.37;;;;;;;14.94;97.38;100778.81;6190245;23;20012;-86
2022/10/23 08:37:37;;;;;;;6.28;3.28;;;;;;;14.94;97.08;100776.09;6165341;23;20082;-86
2022/10/23 08:40:03;;;;;;;8.77;3.30;;;;;;;14.95;97.05;100769.56;6190750;23;20438;-86
2022/10/23 08:42:28;;;;;;;9.97;3.20;;;;;;;14.99;96.38;100770.75;6189969;23;20015;-86
2022/10/23 08:45:05;;;;;;;7.30;3.50;;;;;;;15.00;97.06;100762.28;6190015;23;20232;-86
2022/10/23 08:47:42;;;;;;;7.97;3.08;;;;;;;15.03;96.79;100764.53;6189593;23;20435;-86
2022/10/23 08:50:25;;;;;;;5.80;3.10;;;;;;;15.09;96.65;100757.25;6189584;23;20015;-86
2022/10/23 08:53:04;;;;;;;6.15;2.70;;;;;;;15.18;95.77;100765.88;6216223;23;20477;-86
2022/10/23 08:55:35;;;;;;;8.48;3.30;;;;;;;15.23;95.30;100755.81;6189478;23;20058;-86
2022/10/23 08:58:16;;;;;;;6.18;3.20;;;;;;;15.27;95.38;100751.53;6189468;23;20009;-86
2022/10/23 09:00:43;;;;;;;9.73;3.10;;;;;;;15.31;94.70;100762.81;6190036;23;20304;-86
2022/10/23 09:03:11;;;;;;;6.47;3.27;;;;;;;15.30;94.95;100747.47;6189095;23;20004;-82
2022/10/23 09:06:00;;;;;;;10.00;3.35;;;;;;;15.36;94.70;100749.19;6189809;23;20046;-83
2022/10/23 09:08:47;;;;;;;10.90;3.65;;;;;;;15.42;94.50;100737.25;6216322;23;20004;-85
2022/10/23 09:11:26;;;;;;;10.02;2.95;;;;;;;15.58;93.86;100730.13;6189318;23;20017;-85
2022/10/23 09:14:18;;;;;;;9.75;2.90;;;;;;;15.71;92.87;100733.59;6189510;23;20446;-82
2022/10/23 09:17:07;;;;;;;7.30;2.70;;;;;;;15.85;92.80;100732.16;6189968;23;20009;-84
2022/10/23 09:19:32;;;;;;;7.97;2.75;;;;;;;15.90;91.72;100724.00;6190497;23;20091;-85
2022/10/23 09:21:58;;;;;;;8.53;2.93;;;;;;;15.95;91.48;100724.06;6190027;23;20083;-85
2022/10/23 09:24:25;;;;;;;5.18;3.05;;;;;;;15.95;90.94;100720.50;6189344;23;20009;-86
2022/10/23 09:26:52;;;;;;;10.25;3.25;;;;;;;15.98;90.66;100710.97;6189431;23;20477;-86
2022/10/23 09:29:26;;;;;;;5.13;2.87;;;;;;;15.98;90.59;100710.97;6189035;23;20019;-86
2022/10/23 09:31:57;;;;;;;6.25;3.05;;;;;;;15.98;90.57;100709.06;6189445;23;20032;-86
2022/10/23 09:34:29;;;;;;;8.07;2.70;;;;;;;15.95;90.51;100704.91;6189553;23;20000;-86
2022/10/23 09:36:57;;;;;;;7.45;2.90;;;;;;;15.98;90.55;100691.81;6215609;23;20009;-86
2022/10/23 09:39:35;;;;;;;9.93;3.00;;;;;;;15.99;90.31;100688.84;6189234;23;20004;-86
2022/10/23 09:42:13;;;;;;;6.90;3.03;;;;;;;16.04;90.03;100682.59;6189645;23;20008;-86
2022/10/23 09:44:50;;;;;;;5.90;2.70;;;;;;;16.10;90.14;100684.28;6189356;23;20012;-87
2022/10/23 09:47:19;;;;;;;5.07;2.92;;;;;;;16.14;89.78;100688.19;6215677;23;20005;-86
2022/10/23 09:49:52;;;;;;;4.30;3.05;;;;;;;16.20;90.08;100689.88;6189322;23;20009;-86
2022/10/23 09:52:18;;;;;;;8.80;3.10;;;;;;;16.25;89.45;100689.91;6189638;23;20011;-86
2022/10/23 09:54:45;;;;;;;7.93;2.70;;;;;;;16.34;88.94;100684.00;6217037;23;20000;-86
2022/10/23 09:57:16;;;;;;;6.20;2.90;;;;;;;16.46;88.80;100676.44;6192162;23;20032;-86
2022/10/23 09:59:42;;;;;;;7.20;3.30;;;;;;;16.60;87.96;100674.13;6191082;23;20009;-86
2022/10/23 10:02:26;;;;;;;8.45;2.88;;;;;;;16.66;88.15;100662.13;6191230;23;20442;-87
2022/10/23 10:04:52;;;;;;;9.53;4.10;;;;;;;16.66;87.42;100657.47;6191425;23;20009;-87
2022/10/23 10:07:20;;;;;;;8.85;3.10;;;;;;;16.70;87.11;100645.97;6191360;23;20031;-87
2022/10/23 10:09:47;;;;;;;5.25;2.58;;;;;;;16.73;86.80;100646.31;6190676;23;20423;-87
2022/10/23 10:12:15;;;;;;;9.40;2.73;;;;;;;16.76;86.44;100640.28;6191191;23;20019;-86
2022/10/23 10:14:59;;;;;;;5.55;2.40;;;;;;;16.79;86.78;100634.28;6191348;23;20017;-87
2022/10/23 10:17:51;;;;;;;6.95;2.70;;;;;;;16.83;87.11;100635.44;6191446;23;20103;-86
2022/10/23 10:20:26;;;;;;;9.73;2.70;;;;;;;16.85;86.59;100626.94;6190945;23;20415;-87
2022/10/23 10:23:05;;;;;;;10.30;2.42;;;;;;;16.86;86.40;100614.91;6190879;23;20012;-87
2022/10/23 10:25:38;;;;;;;6.90;2.50;;;;;;;16.93;85.76;100610.06;6191407;23;20388;-87
2022/10/23 10:28:31;;;;;;;10.48;2.67;;;;;;;17.12;85.85;100615.91;6191320;23;20012;-87
2022/10/23 10:31:26;;;;;;;7.72;2.60;;;;;;;17.27;85.34;100625.31;6191308;23;20075;-87
2022/10/23 10:33:51;;;;;;;7.68;2.45;;;;;;;17.38;83.78;100621.53;6190923;23;20051;-87
2022/10/23 10:36:40;;;;;;;6.63;2.50;;;;;;;17.57;83.68;100621.91;6217537;23;20000;-87
2022/10/23 10:39:38;;;;;;;6.03;2.72;;;;;;;17.85;82.82;100617.06;6191206;23;20016;-87
2022/10/23 10:42:19;;;;;;;5.53;2.30;;;;;;;18.05;80.33;100608.09;6191622;23;20029;-87
2022/10/23 10:45:04;;;;;;;7.05;3.03;;;;;;;18.30;78.94;100604.56;6191758;23;20011;-88
2022/10/23 10:48:00;;;;;;;5.40;2.17;;;;;;;18.61;78.66;100607.31;6191725;23;20012;-87
2022/10/23 10:50:32;;;;;;;3.92;2.30;;;;;;;18.98;76.68;100597.97;6217700;23;20012;-87
2022/10/23 10:53:16;;;;;;;6.80;3.05;;;;;;;19.38;76.55;100589.88;6191365;23;20506;-87
2022/10/23 10:55:45;;;;;;;4.93;2.20;;;;;;;19.86;72.13;100589.44;6217536;23;20013;-87
2022/10/23 10:58:20;;;;;;;5.25;2.50;;;;;;;20.28;71.14;100582.53;6190761;23;20004;-87
2022/10/23 11:00:51;;;;;;;6.72;2.25;;;;;;;20.60;69.47;100570.97;6191845;23;20008;-87
2022/10/23 11:03:41;;;;;;;5.95;2.30;;;;;;;20.90;69.18;100593.03;6217377;23;20005;-87
2022/10/23 11:06:13;;;;;;;6.32;2.53;;;;;;;20.95;67.35;100585.56;6190567;23;20454;-88
2022/10/23 11:08:40;;;;;;;11.20;2.60;;;;;;;20.78;67.07;100574.94;6216908;23;20005;-86
2022/10/23 11:11:30;;;;;;;6.07;2.38;;;;;;;20.68;69.84;100572.28;6215092;23;20091;-86
2022/10/23 11:13:56;;;;;;;5.55;2.53;;;;;;;20.55;67.83;100564.66;6190898;23;20331;-86
2022/10/23 11:16:33;;;;;;;11.45;2.70;;;;;;;20.71;68.87;100560.69;6190588;23;20019;-86
2022/10/23 11:19:25;;;;;;;5.85;2.50;;;;;;;21.14;68.57;100565.47;6216860;23;20039;-86
2022/10/23 11:21:54;;;;;;;6.47;2.60;;;;;;;21.52;64.86;100573.88;6190656;23;20009;-87
2022/10/23 11:24:32;;;;;;;6.28;2.58;;;;;;;21.60;65.47;100550.31;6190033;23;20014;-86
2022/10/23 11:27:26;;;;;;;5.65;2.55;;;;;;;21.61;65.20;100543.69;6190640;23;20012;-86
2022/10/23 11:30:00;;;;;;;15.30;2.55;;;;;;;21.71;63.72;100554.59;6190700;23;20005;-85